createdAt,value
2022-10-24T00:01:21.631Z,57.80
2022-10-24T00:03:49.605Z,57.50
2022-10-24T00:06:17.477Z,56.70
2022-10-24T00:08:44.903Z,58.60
2022-10-24T00:11:24.314Z,59.60
2022-10-24T00:13:52.232Z,61.20
2022-10-24T00:16:19.593Z,61.00
2022-10-24T00:18:47.416Z,60.50
2022-10-24T00:21:14.768Z,61.00
2022-10-24T00:23:42.155Z,59.50
2022-10-24T00:26:10.341Z,59.40
2022-10-24T00:28:37.896Z,58.50
2022-10-24T00:31:07.587Z,57.40
2022-10-24T00:33:35.178Z,57.20
2022-10-24T00:36:02.372Z,57.70
2022-10-24T00:38:29.575Z,56.10
2022-10-24T00:40:56.861Z,55.60
2022-10-24T00:43:25.611Z,55.00
2022-10-24T00:46:00.873Z,54.20
2022-10-24T00:48:37.943Z,52.80
2022-10-24T00:51:27.708Z,51.80
2022-10-24T00:54:01.722Z,51.20
2022-10-24T00:56:34.370Z,52.00
2022-10-24T00:59:04.007Z,51.90
2022-10-24T01:01:31.389Z,51.90
2022-10-24T01:03:58.525Z,52.30
2022-10-24T01:06:46.701Z,51.30
2022-10-24T01:09:32.570Z,48.70
2022-10-24T01:12:27.791Z,48.60
2022-10-24T01:15:07.347Z,48.20
2022-10-24T01:17:52.568Z,47.10
2022-10-24T01:20:48.681Z,45.80
2022-10-24T01:23:34.384Z,45.60
2022-10-24T01:26:16.629Z,45.70
2022-10-24T01:29:00.582Z,45.00
2022-10-24T01:31:34.259Z,45.50
2022-10-24T01:34:10.197Z,46.50
2022-10-24T01:36:45.372Z,46.00
2022-10-24T01:39:18.579Z,45.30
2022-10-24T01:41:47.186Z,44.80
2022-10-24T01:44:37.851Z,44.00
2022-10-24T01:47:21.917Z,44.00
2022-10-24T01:49:55.557Z,42.10
2022-10-24T01:52:26.162Z,63.60
2022-10-24T01:54:54.255Z,43.50
2022-10-24T01:57:26.354Z,42.20
2022-10-24T01:59:53.743Z,41.10
2022-10-24T02:02:32.778Z,41.00
2022-10-24T02:05:06.163Z,38.00
2022-10-24T02:07:37.038Z,39.20
2022-10-24T02:10:10.738Z,40.80
2022-10-24T02:12:43.163Z,41.60
2022-10-24T02:15:25.553Z,40.40
2022-10-24T02:17:53.327Z,38.40
2022-10-24T02:20:37.387Z,39.40
2022-10-24T02:23:23.895Z,37.90
2022-10-24T02:25:54.659Z,38.30
2022-10-24T02:28:29.399Z,38.10
2022-10-24T02:31:02.622Z,37.10
2022-10-24T02:33:30.994Z,37.30
2022-10-24T02:35:59.360Z,38.30
2022-10-24T02:38:31.635Z,37.80
2022-10-24T02:41:02.280Z,37.50
2022-10-24T02:43:32.878Z,37.20
2022-10-24T02:46:00.578Z,36.40
2022-10-24T02:48:33.031Z,36.40
2022-10-24T02:51:00.890Z,36.60
2022-10-24T02:53:28.804Z,36.50
2022-10-24T02:55:56.248Z,36.40
2022-10-24T02:58:23.441Z,34.70
2022-10-24T03:00:50.663Z,35.00
2022-10-24T03:03:17.883Z,34.30
2022-10-24T03:05:45.222Z,34.20
2022-10-24T03:08:12.959Z,36.60
2022-10-24T03:10:40.183Z,41.10
2022-10-24T03:13:07.491Z,42.20
2022-10-24T03:15:34.684Z,42.20
2022-10-24T03:18:01.798Z,42.30
2022-10-24T03:20:28.971Z,40.30
2022-10-24T03:22:56.112Z,39.50
2022-10-24T03:25:23.280Z,37.50
2022-10-24T03:27:50.370Z,35.80
2022-10-24T03:30:17.642Z,35.70
2022-10-24T03:32:45.014Z,34.60
2022-10-24T03:35:14.214Z,33.80
2022-10-24T03:37:41.891Z,35.10
2022-10-24T03:40:10.103Z,36.40
2022-10-24T03:42:37.344Z,33.10
2022-10-24T03:45:05.007Z,31.50
2022-10-24T03:47:32.140Z,31.10
2022-10-24T03:49:59.262Z,30.60
2022-10-24T03:52:26.702Z,30.40
2022-10-24T03:54:53.883Z,29.70
2022-10-24T03:59:53.589Z,30.70
2022-10-24T04:02:20.807Z,31.00
2022-10-24T04:04:47.939Z,30.30
2022-10-24T04:07:15.135Z,30.30
2022-10-24T04:09:42.433Z,30.00
2022-10-24T04:12:09.647Z,30.50
2022-10-24T04:14:36.791Z,30.60
2022-10-24T04:17:04.000Z,30.80
2022-10-24T04:19:31.158Z,29.60
2022-10-24T04:21:58.393Z,30.00
2022-10-24T04:24:25.935Z,30.60
2022-10-24T04:26:53.073Z,30.20
2022-10-24T04:29:20.344Z,30.40
2022-10-24T04:31:47.559Z,30.10
2022-10-24T04:34:15.018Z,33.00
2022-10-24T04:36:42.543Z,32.50
2022-10-24T04:39:09.727Z,31.10
2022-10-24T04:41:36.978Z,32.90
2022-10-24T04:44:04.219Z,33.30
2022-10-24T04:46:31.536Z,33.10
2022-10-24T04:48:58.647Z,33.20
2022-10-24T04:51:26.126Z,32.80
2022-10-24T04:53:53.295Z,33.20
2022-10-24T04:56:20.476Z,33.80
2022-10-24T04:58:47.616Z,33.90
2022-10-24T05:01:14.777Z,33.30
2022-10-24T05:03:41.926Z,33.20
2022-10-24T05:06:09.126Z,33.50
2022-10-24T05:08:36.403Z,33.60
2022-10-24T05:11:03.735Z,34.40
2022-10-24T05:13:34.292Z,33.80
2022-10-24T05:16:04.552Z,34.30
2022-10-24T05:18:32.536Z,34.60
2022-10-24T05:21:01.112Z,35.40
2022-10-24T05:23:28.570Z,35.10
2022-10-24T05:25:55.704Z,36.50
2022-10-24T05:28:22.948Z,36.00
2022-10-24T05:30:50.109Z,35.70
2022-10-24T05:33:17.262Z,37.10
2022-10-24T05:35:44.415Z,37.60
2022-10-24T05:38:11.588Z,37.90
2022-10-24T05:40:38.730Z,37.70
2022-10-24T05:43:05.857Z,39.00
2022-10-24T05:45:33.209Z,39.20
2022-10-24T05:48:00.354Z,39.70
2022-10-24T05:50:30.033Z,40.30
2022-10-24T05:52:57.195Z,41.40
2022-10-24T05:55:24.413Z,43.20
2022-10-24T05:57:51.597Z,42.20
2022-10-24T06:00:19.407Z,42.70
2022-10-24T06:05:19.922Z,43.00
2022-10-24T06:07:47.529Z,42.30
2022-10-24T06:10:15.183Z,43.30
2022-10-24T06:12:42.492Z,43.00
2022-10-24T06:15:12.024Z,42.30
2022-10-24T06:17:39.193Z,61.20
2022-10-24T06:20:06.774Z,43.30
2022-10-24T06:22:34.042Z,43.00
2022-10-24T06:25:01.715Z,45.00
2022-10-24T06:27:28.986Z,46.40
2022-10-24T06:29:56.144Z,46.00
2022-10-24T06:32:23.366Z,67.40
2022-10-24T06:34:51.146Z,48.40
2022-10-24T06:37:18.351Z,47.70
2022-10-24T06:39:45.532Z,46.40
2022-10-24T06:42:12.767Z,46.60
2022-10-24T06:44:39.893Z,47.10
2022-10-24T06:47:07.295Z,47.80
2022-10-24T06:49:34.661Z,48.50
2022-10-24T06:52:02.013Z,48.60
2022-10-24T06:54:30.517Z,49.40
2022-10-24T06:56:57.878Z,48.50
2022-10-24T06:59:25.197Z,49.30
2022-10-24T07:01:52.559Z,50.60
2022-10-24T07:04:20.045Z,51.80
2022-10-24T07:06:47.232Z,74.90
2022-10-24T07:09:15.619Z,54.10
2022-10-24T07:11:44.271Z,53.20
2022-10-24T07:14:12.163Z,53.00
2022-10-24T07:16:40.283Z,54.20
2022-10-24T07:19:08.258Z,55.20
2022-10-24T07:21:35.442Z,55.00
2022-10-24T07:24:03.543Z,53.50
2022-10-24T07:26:30.907Z,53.30
2022-10-24T07:31:32.685Z,54.10
2022-10-24T07:34:01.980Z,53.90
2022-10-24T07:36:30.674Z,54.20
2022-10-24T07:38:59.207Z,55.50
2022-10-24T07:41:27.929Z,55.10
2022-10-24T07:43:56.633Z,54.70
2022-10-24T07:46:24.512Z,54.40
2022-10-24T07:48:52.606Z,55.10
2022-10-24T07:51:21.098Z,54.70
2022-10-24T07:53:48.734Z,56.30
2022-10-24T07:56:17.447Z,54.40
2022-10-24T07:58:45.618Z,54.20
2022-10-24T08:01:21.604Z,56.30
2022-10-24T08:03:49.155Z,55.30
2022-10-24T08:06:18.989Z,56.90
2022-10-24T08:08:46.384Z,55.20
2022-10-24T08:11:21.697Z,54.90
2022-10-24T08:13:50.444Z,55.60
2022-10-24T08:16:20.836Z,56.60
2022-10-24T08:18:48.649Z,56.50
2022-10-24T08:21:17.171Z,57.20
2022-10-24T08:23:46.036Z,57.20
2022-10-24T08:26:16.032Z,56.50
2022-10-24T08:28:45.375Z,56.20
2022-10-24T08:31:15.375Z,57.40
2022-10-24T08:33:43.568Z,56.00
2022-10-24T08:36:31.903Z,57.30
2022-10-24T08:38:59.894Z,55.10
2022-10-24T08:41:36.781Z,54.40
2022-10-24T08:44:20.099Z,54.20
2022-10-24T08:47:05.285Z,53.00
2022-10-24T08:49:55.028Z,53.00
2022-10-24T08:52:27.735Z,53.90
2022-10-24T08:54:56.715Z,53.20
2022-10-24T08:57:27.806Z,53.70
2022-10-24T09:00:02.223Z,55.20
2022-10-24T09:02:35.784Z,55.00
2022-10-24T09:05:42.515Z,54.50
2022-10-24T09:08:51.541Z,54.10
2022-10-24T09:11:59.495Z,54.30
2022-10-24T09:14:32.158Z,55.10
2022-10-24T09:17:14.127Z,52.80
2022-10-24T09:19:43.934Z,53.20
2022-10-24T09:22:12.432Z,52.50
2022-10-24T09:24:47.627Z,54.90
2022-10-24T09:27:29.587Z,53.40
2022-10-24T09:30:00.485Z,55.70
2022-10-24T09:32:33.660Z,55.30
2022-10-24T09:35:11.995Z,54.40
2022-10-24T09:37:49.226Z,55.50
2022-10-24T09:40:23.317Z,54.80
2022-10-24T09:43:11.646Z,55.50
2022-10-24T09:45:44.271Z,55.30
2022-10-24T09:48:32.660Z,55.20
2022-10-24T09:51:00.532Z,53.00
2022-10-24T09:53:33.451Z,54.10
2022-10-24T09:56:20.851Z,54.60
2022-10-24T09:58:47.966Z,55.40
2022-10-24T10:01:15.132Z,55.50
2022-10-24T10:03:43.074Z,57.40
2022-10-24T10:06:19.414Z,56.00
2022-10-24T10:08:55.356Z,57.10
2022-10-24T10:11:35.094Z,56.70
2022-10-24T10:14:21.087Z,55.10
2022-10-24T10:16:59.465Z,55.10
2022-10-24T10:19:26.810Z,54.50
2022-10-24T10:21:56.021Z,53.80
2022-10-24T10:24:28.064Z,54.50
2022-10-24T10:26:55.414Z,55.50
2022-10-24T10:29:24.160Z,56.70
2022-10-24T10:32:27.376Z,57.80
2022-10-24T10:35:03.663Z,57.70
2022-10-24T10:37:35.824Z,57.30
2022-10-24T10:40:29.299Z,57.50
2022-10-24T10:43:23.651Z,57.40
2022-10-24T10:46:13.777Z,59.00
2022-10-24T10:49:01.619Z,59.40
2022-10-24T10:51:50.167Z,58.50
2022-10-24T10:54:42.247Z,58.50
2022-10-24T10:57:21.055Z,57.40
2022-10-24T11:00:13.012Z,57.20
2022-10-24T11:02:55.919Z,58.20
2022-10-24T11:06:00.828Z,55.70
2022-10-24T11:09:03.301Z,54.60
2022-10-24T11:11:38.802Z,53.30
2022-10-24T11:14:14.870Z,51.60
2022-10-24T11:16:42.969Z,49.80
2022-10-24T11:19:30.202Z,52.00
2022-10-24T11:22:00.460Z,49.90
2022-10-24T11:24:28.828Z,49.60
2022-10-24T11:27:06.620Z,49.60
2022-10-24T11:29:52.273Z,49.00
2022-10-24T11:32:34.532Z,49.80
2022-10-24T11:35:44.887Z,50.50
2022-10-24T11:38:23.235Z,48.00
2022-10-24T11:40:58.670Z,49.30
2022-10-24T11:43:30.748Z,47.60
2022-10-24T11:46:29.349Z,46.10
2022-10-24T11:49:29.129Z,43.60
2022-10-24T11:52:04.725Z,42.90
2022-10-24T11:54:47.436Z,45.60
2022-10-24T11:57:21.875Z,43.70
2022-10-24T11:59:53.320Z,43.50
2022-10-24T12:02:52.887Z,45.80
2022-10-24T12:05:28.978Z,44.30
2022-10-24T12:08:18.940Z,46.10
2022-10-24T12:11:40.094Z,43.20
2022-10-24T12:14:29.556Z,41.90
2022-10-24T12:17:15.922Z,44.00
2022-10-24T12:19:45.740Z,42.50
2022-10-24T12:22:21.996Z,42.50
2022-10-24T12:25:01.553Z,43.80
2022-10-24T12:27:41.963Z,43.40
2022-10-24T12:30:09.174Z,43.20
2022-10-24T12:32:56.077Z,43.60
2022-10-24T12:35:33.895Z,42.50
2022-10-24T12:38:02.947Z,43.50
2022-10-24T12:40:45.529Z,44.60
2022-10-24T12:43:37.156Z,44.90
2022-10-24T12:46:25.573Z,43.10
2022-10-24T12:48:58.859Z,43.50
2022-10-24T12:51:31.975Z,44.10
2022-10-24T12:54:12.457Z,43.00
2022-10-24T12:56:52.229Z,44.00
2022-10-24T12:59:28.979Z,46.60
2022-10-24T13:02:43.112Z,44.30
2022-10-24T13:05:34.674Z,43.50
2022-10-24T13:08:04.802Z,44.20
2022-10-24T13:11:01.888Z,44.70
2022-10-24T13:13:56.289Z,43.30
2022-10-24T13:16:46.596Z,43.20
2022-10-24T13:19:19.598Z,42.00
2022-10-24T13:21:47.116Z,42.30
2022-10-24T13:24:17.372Z,41.70
2022-10-24T13:26:47.406Z,40.70
2022-10-24T13:29:23.532Z,39.30
2022-10-24T13:32:18.533Z,39.10
2022-10-24T13:34:50.406Z,38.10
2022-10-24T13:37:42.399Z,39.90
2022-10-24T13:40:30.428Z,38.50
2022-10-24T13:43:28.580Z,38.40
2022-10-24T13:46:13.018Z,37.70
2022-10-24T13:48:47.568Z,38.60
2022-10-24T13:51:25.752Z,39.80
2022-10-24T13:53:58.943Z,39.30
2022-10-24T13:56:27.695Z,39.90
2022-10-24T13:58:54.849Z,41.30
2022-10-24T14:01:28.147Z,40.70
2022-10-24T14:03:56.917Z,41.70
2022-10-24T14:06:33.892Z,41.20
2022-10-24T14:09:07.524Z,41.00
2022-10-24T14:11:39.244Z,41.20
2022-10-24T14:14:14.743Z,42.40
2022-10-24T14:16:41.889Z,40.90
2022-10-24T14:19:27.101Z,40.60
2022-10-24T14:21:56.855Z,40.30
2022-10-24T14:24:24.155Z,40.20
2022-10-24T14:26:54.118Z,41.30
2022-10-24T14:29:31.915Z,40.80
2022-10-24T14:32:01.866Z,40.20
2022-10-24T14:34:33.868Z,38.80
2022-10-24T14:37:06.111Z,38.60
2022-10-24T14:39:33.784Z,37.40
2022-10-24T14:42:01.705Z,36.20
2022-10-24T14:44:29.457Z,35.80
2022-10-24T14:47:04.431Z,36.50
2022-10-24T14:49:36.632Z,36.40
2022-10-24T14:52:26.987Z,36.00
2022-10-24T14:55:03.147Z,36.50
2022-10-24T14:57:32.823Z,36.10
2022-10-24T15:00:07.238Z,37.10
2022-10-24T15:02:43.241Z,37.40
2022-10-24T15:05:13.869Z,36.60
2022-10-24T15:07:52.248Z,35.80
2022-10-24T15:10:32.637Z,54.90
2022-10-24T15:13:04.604Z,36.40
2022-10-24T15:15:47.794Z,37.40
2022-10-24T15:18:20.914Z,37.00
2022-10-24T15:20:51.702Z,36.30
2022-10-24T15:23:32.299Z,36.60
2022-10-24T15:26:07.580Z,36.20
2022-10-24T15:28:53.781Z,36.70
2022-10-24T15:31:22.851Z,37.00
2022-10-24T15:33:50.235Z,36.10
2022-10-24T15:36:23.387Z,36.50
2022-10-24T15:38:58.773Z,36.50
2022-10-24T15:41:29.513Z,36.50
2022-10-24T15:43:58.122Z,38.40
2022-10-24T15:46:26.321Z,39.20
2022-10-24T15:48:53.501Z,39.20
2022-10-24T15:51:23.788Z,40.50
2022-10-24T15:53:51.571Z,40.80
2022-10-24T15:56:18.707Z,41.80
2022-10-24T15:58:45.924Z,42.20
2022-10-24T16:01:32.348Z,45.10
2022-10-24T16:04:00.605Z,44.50
2022-10-24T16:06:28.575Z,46.20
2022-10-24T16:08:56.552Z,66.90
2022-10-24T16:11:23.994Z,46.00
2022-10-24T16:13:51.186Z,47.10
2022-10-24T16:16:18.547Z,47.50
2022-10-24T16:18:45.678Z,48.00
2022-10-24T16:21:20.200Z,48.40
2022-10-24T16:23:48.572Z,48.00
2022-10-24T16:26:17.356Z,48.50
2022-10-24T16:28:44.543Z,49.70
2022-10-24T16:31:18.570Z,49.10
2022-10-24T16:33:46.389Z,49.30
2022-10-24T16:36:14.633Z,49.90
2022-10-24T16:38:41.962Z,51.00
2022-10-24T16:41:15.679Z,52.30
2022-10-24T16:43:44.207Z,54.90
2022-10-24T16:46:19.726Z,56.00
2022-10-24T16:48:47.633Z,57.20
2022-10-24T16:51:22.807Z,58.80
2022-10-24T16:53:50.489Z,59.00
2022-10-24T16:56:17.696Z,59.40
2022-10-24T16:58:45.247Z,60.60
2022-10-24T17:01:14.778Z,60.80
2022-10-24T17:03:42.290Z,59.70
2022-10-24T17:06:09.767Z,60.20
2022-10-24T17:08:36.936Z,61.80
2022-10-24T17:11:07.057Z,62.30
2022-10-24T17:13:39.852Z,62.00
2022-10-24T17:16:10.827Z,62.10
2022-10-24T17:18:38.107Z,86.10
2022-10-24T17:21:05.575Z,63.20
2022-10-24T17:23:33.868Z,64.70
2022-10-24T17:26:01.482Z,65.80
2022-10-24T17:28:33.058Z,66.50
2022-10-24T17:31:00.684Z,68.00
2022-10-24T17:33:27.910Z,67.80
2022-10-24T17:35:57.036Z,68.20
2022-10-24T17:38:49.783Z,70.10
2022-10-24T17:41:26.004Z,70.20
2022-10-24T17:43:53.989Z,71.60
2022-10-24T17:46:21.792Z,71.10
2022-10-24T17:48:50.573Z,71.00
2022-10-24T17:51:22.516Z,72.30
2022-10-24T17:53:49.780Z,73.70
2022-10-24T17:56:19.470Z,50.80
2022-10-24T17:58:51.129Z,47.20
2022-10-24T18:01:18.590Z,46.00
2022-10-24T18:03:45.839Z,46.30
2022-10-24T18:06:14.589Z,44.80
2022-10-24T18:08:41.680Z,44.20
2022-10-24T18:11:09.903Z,44.30
2022-10-24T18:13:38.458Z,45.60
2022-10-24T18:16:13.664Z,43.20
2022-10-24T18:18:41.473Z,37.40
2022-10-24T18:21:13.558Z,41.50
2022-10-24T18:23:40.958Z,39.70
2022-10-24T18:26:20.111Z,44.40
2022-10-24T18:28:49.719Z,49.60
2022-10-24T18:31:20.031Z,54.30
2022-10-24T18:33:47.327Z,54.10
2022-10-24T18:36:20.340Z,56.00
2022-10-24T18:38:47.961Z,58.20
2022-10-24T18:41:30.546Z,63.30
2022-10-24T18:44:00.489Z,63.80
2022-10-24T18:46:29.112Z,63.20
2022-10-24T18:48:56.491Z,67.00
2022-10-24T18:51:35.760Z,72.80
2022-10-24T18:54:06.706Z,78.90
2022-10-24T18:56:34.442Z,78.70
2022-10-24T18:59:01.674Z,76.70
2022-10-24T19:01:39.131Z,73.50
2022-10-24T19:04:19.178Z,77.90
2022-10-24T19:06:47.984Z,77.50
2022-10-24T19:09:18.881Z,79.60
2022-10-24T19:11:48.764Z,89.60
2022-10-24T19:14:16.591Z,89.10
2022-10-24T19:16:45.967Z,73.20
2022-10-24T19:19:16.670Z,85.60
2022-10-24T19:21:45.380Z,85.30
2022-10-24T19:24:16.236Z,89.90
2022-10-24T19:26:43.594Z,89.70
2022-10-24T19:29:10.714Z,91.20
2022-10-24T19:31:37.981Z,93.20
2022-10-24T19:34:05.192Z,93.50
2022-10-24T19:36:35.899Z,92.10
2022-10-24T19:39:03.954Z,95.20
2022-10-24T19:41:31.074Z,96.00
2022-10-24T19:43:58.206Z,95.00
2022-10-24T19:46:25.393Z,95.20
2022-10-24T19:48:53.218Z,92.40
2022-10-24T19:51:21.263Z,89.10
2022-10-24T19:53:49.689Z,90.70
2022-10-24T19:56:26.265Z,95.10
2022-10-24T19:58:55.067Z,99.40
2022-10-24T20:01:24.861Z,99.90
2022-10-24T20:03:52.791Z,99.90
2022-10-24T20:06:20.010Z,99.90
2022-10-24T20:08:48.890Z,99.90
2022-10-24T20:11:16.804Z,99.90
2022-10-24T20:13:45.016Z,99.90
2022-10-24T20:16:13.387Z,99.90
2022-10-24T20:18:43.334Z,99.90
2022-10-24T20:21:13.068Z,99.90
2022-10-24T20:23:41.658Z,99.90
2022-10-24T20:26:14.711Z,99.90
2022-10-24T20:28:44.870Z,99.90
2022-10-24T20:31:34.137Z,99.90
2022-10-24T20:34:07.101Z,99.90
2022-10-24T20:36:37.874Z,99.90
2022-10-24T20:39:06.671Z,99.90
2022-10-24T20:41:34.711Z,99.90
2022-10-24T20:44:02.408Z,99.90
2022-10-24T20:46:29.707Z,99.90
2022-10-24T20:48:57.544Z,99.90
2022-10-24T20:51:24.918Z,99.90
2022-10-24T20:53:52.338Z,99.40
2022-10-24T20:56:22.548Z,99.90
2022-10-24T20:58:51.459Z,99.90
2022-10-24T21:01:21.351Z,99.90
2022-10-24T21:03:50.353Z,99.90
2022-10-24T21:06:26.014Z,99.90
2022-10-24T21:08:55.436Z,99.90
2022-10-24T21:11:26.015Z,99.90
2022-10-24T21:13:58.275Z,99.90
2022-10-24T21:16:26.383Z,99.90
2022-10-24T21:18:53.559Z,99.90
2022-10-24T21:21:22.260Z,99.90
2022-10-24T21:24:00.812Z,99.90
2022-10-24T21:26:31.178Z,99.90
2022-10-24T21:29:08.562Z,99.90
2022-10-24T21:31:45.415Z,99.90
2022-10-24T21:34:12.566Z,99.90
2022-10-24T21:36:39.634Z,99.90
2022-10-24T21:39:06.797Z,99.90
2022-10-24T21:41:33.978Z,99.90
2022-10-24T21:44:01.090Z,99.90
2022-10-24T21:46:31.704Z,99.90
2022-10-24T21:48:59.970Z,99.90
2022-10-24T21:51:29.918Z,99.90
2022-10-24T21:53:59.844Z,99.90
2022-10-24T21:56:29.871Z,99.90
2022-10-24T22:01:36.419Z,99.90
2022-10-24T22:04:04.483Z,99.90
2022-10-24T22:06:32.975Z,99.90
2022-10-24T22:09:00.260Z,99.90
2022-10-24T22:11:29.758Z,99.90
2022-10-24T22:13:57.587Z,99.90
2022-10-24T22:16:27.662Z,99.90
2022-10-24T22:18:55.717Z,99.90
2022-10-24T22:21:35.282Z,99.90
2022-10-24T22:24:08.727Z,99.90
2022-10-24T22:26:36.817Z,99.90
2022-10-24T22:29:05.365Z,99.90
2022-10-24T22:31:33.601Z,99.90
2022-10-24T22:34:01.074Z,99.90
2022-10-24T22:36:37.221Z,99.90
2022-10-24T22:39:08.396Z,99.90
2022-10-24T22:41:35.869Z,99.90
2022-10-24T22:44:03.218Z,99.90
2022-10-24T22:47:06.291Z,99.90
2022-10-24T22:50:03.938Z,99.90
2022-10-24T22:52:31.299Z,99.90
2022-10-24T22:54:58.876Z,99.90
2022-10-24T22:57:26.510Z,99.90
2022-10-24T22:59:53.955Z,99.90
2022-10-24T23:02:25.245Z,99.90
2022-10-24T23:05:35.543Z,99.90
2022-10-24T23:08:02.615Z,99.90
2022-10-24T23:10:29.900Z,99.90
2022-10-24T23:12:57.330Z,99.90
2022-10-24T23:15:25.254Z,99.90
2022-10-24T23:17:52.647Z,99.90
2022-10-24T23:20:25.648Z,99.90
2022-10-24T23:23:08.887Z,99.90
2022-10-24T23:25:52.439Z,99.90
2022-10-24T23:28:27.376Z,99.90
2022-10-24T23:30:54.813Z,99.90
2022-10-24T23:33:27.614Z,99.90
2022-10-24T23:35:58.855Z,99.90
2022-10-24T23:38:26.585Z,99.90
2022-10-24T23:40:54.468Z,99.90
2022-10-24T23:43:23.106Z,99.90
2022-10-24T23:46:01.822Z,99.90
2022-10-24T23:49:06.702Z,99.90
2022-10-24T23:52:00.636Z,99.90
2022-10-24T23:54:32.016Z,99.90
2022-10-24T23:56:59.888Z,99.90
2022-10-24T23:59:27.014Z,99.90
